Onawa, Iowa
Current Conditions -  °F | °C
As of 8:54 AM on Wednesday 26 Nov 2014 (Local Time) from KTQE Reporting Station
Overcast Overcast  
Wind Chill: 24°   Ceiling: 1400
Heat Index: 36°   Visibility: 9mi
Dew Point: 31°   Wind: 23mph
Humidity: 82%   Direction: 350°N
Pressure: 29.98"   Gusts: 33mph
Location:  42.03°N, 96.1°W
Report Text: KTQE 261454Z AUTO 35020G29KT 9SM OVC014 02/M01 A2998 RMK AO2 PK WND 33029/1447 SLP154 T00221006 53018
Loading
Personal Weather Stations






























Interactive Weather Map New forecast layout! Learn more

10-Day Weather Forecast

Advertisements
Track Severe Weather on mobile